createdAt,value
2022-08-09T00:00:11.907Z,100986.06
2022-08-09T00:10:21.263Z,100987.59
2022-08-09T00:20:26.818Z,100982.25
2022-08-09T00:30:34.187Z,100970.84
2022-08-09T00:40:38.004Z,100962.78
2022-08-09T00:50:41.183Z,100965.03
2022-08-09T01:00:48.336Z,100963.16
2022-08-09T01:11:00.308Z,100968.16
2022-08-09T01:21:53.755Z,100959.69
2022-08-09T01:32:30.960Z,100966.16
2022-08-09T01:42:23.732Z,100971.59
2022-08-09T01:52:27.599Z,100976.94
2022-08-09T02:02:35.510Z,100974.25
2022-08-09T02:12:40.288Z,100969.28
2022-08-09T02:22:49.656Z,100984.28
2022-08-09T02:32:53.940Z,100986.94
2022-08-09T02:42:59.884Z,100993.84
2022-08-09T02:53:10.591Z,100986.19
2022-08-09T03:04:12.327Z,100993.84
2022-08-09T03:14:01.200Z,100990.81
2022-08-09T03:24:05.261Z,100995.75
2022-08-09T03:34:08.174Z,101007.28
2022-08-09T03:44:15.570Z,101000.75
2022-08-09T03:54:29.601Z,100991.13
2022-08-09T04:04:36.233Z,100990.34
2022-08-09T04:15:00.310Z,100990.31
2022-08-09T04:25:04.877Z,100986.03
2022-08-09T04:35:10.257Z,100996.41
2022-08-09T04:45:13.112Z,101004.53
2022-08-09T04:55:15.791Z,101013.88
2022-08-09T05:05:32.109Z,101013.34
2022-08-09T05:15:56.443Z,101027.00
2022-08-09T05:25:58.840Z,101016.75
2022-08-09T05:36:02.238Z,101017.41
2022-08-09T05:46:04.753Z,101018.19
2022-08-09T05:56:07.464Z,101026.28
2022-08-09T06:06:10.133Z,101044.41
2022-08-09T06:16:13.758Z,101048.16
2022-08-09T06:26:22.091Z,101049.84
2022-08-09T06:36:26.999Z,101043.91
2022-08-09T06:46:39.800Z,101044.97
2022-08-09T06:56:45.488Z,101047.91
2022-08-09T07:06:53.346Z,101054.59
2022-08-09T07:17:02.569Z,101056.38
2022-08-09T07:27:26.455Z,101052.63
2022-08-09T07:37:44.634Z,101053.44
2022-08-09T07:48:00.570Z,101056.25
2022-08-09T07:58:13.183Z,101086.22
2022-08-09T08:09:02.016Z,101087.25
2022-08-09T08:18:39.276Z,101090.91
2022-08-09T08:28:45.626Z,101099.56
2022-08-09T08:38:48.311Z,101103.56
2022-08-09T08:48:53.876Z,101099.88
2022-08-09T08:58:56.922Z,101087.00
2022-08-09T09:09:00.860Z,101089.69
2022-08-09T09:30:08.427Z,101074.66
2022-08-09T09:40:02.602Z,101071.56
2022-08-09T09:50:15.187Z,101071.09
2022-08-09T10:00:25.843Z,101073.41
2022-08-09T10:10:31.543Z,101065.19
2022-08-09T10:20:37.310Z,101054.53
2022-08-09T10:32:28.278Z,101054.44
2022-08-09T10:41:10.965Z,101046.75
2022-08-09T10:52:00.408Z,101036.28
2022-08-09T11:03:11.489Z,101031.16
2022-08-09T11:12:31.961Z,101021.47
2022-08-09T11:22:40.811Z,101013.03
2022-08-09T11:32:47.519Z,101005.09
2022-08-09T11:42:57.985Z,100998.97
2022-08-09T11:53:58.109Z,101000.34
2022-08-09T12:03:55.046Z,100995.66
2022-08-09T12:14:28.570Z,100994.97
2022-08-09T12:24:32.410Z,100979.13
2022-08-09T12:34:42.163Z,100968.78
2022-08-09T12:44:51.902Z,100965.84
2022-08-09T12:55:00.603Z,100956.59
2022-08-09T13:05:19.393Z,100950.53
2022-08-09T13:15:27.992Z,100954.97
2022-08-09T13:25:54.988Z,100957.69
2022-08-09T13:36:38.818Z,100951.41
2022-08-09T13:47:16.103Z,100961.63
2022-08-09T13:56:47.102Z,100962.03
2022-08-09T14:06:59.843Z,100947.59
2022-08-09T14:17:06.439Z,100964.34
2022-08-09T14:27:20.596Z,100970.31
2022-08-09T14:37:28.129Z,100977.03
2022-08-09T14:47:44.961Z,100989.38
2022-08-09T14:57:49.870Z,100977.94
2022-08-09T15:07:56.527Z,100987.44
2022-08-09T15:18:00.908Z,101007.28
2022-08-09T15:28:03.921Z,101010.13
2022-08-09T15:38:26.389Z,101017.84
2022-08-09T15:48:30.602Z,101020.16
2022-08-09T15:58:34.244Z,101044.13
2022-08-09T16:08:37.190Z,101042.47
2022-08-09T16:18:48.042Z,101049.66
2022-08-09T16:28:50.507Z,101079.69
2022-08-09T16:38:54.476Z,101082.34
2022-08-09T16:49:12.446Z,101081.28
2022-08-09T16:59:22.628Z,101092.53
2022-08-09T17:09:46.010Z,101101.63
2022-08-09T17:20:33.005Z,101102.31
2022-08-09T17:30:14.210Z,101107.88
2022-08-09T17:40:18.315Z,101105.03
2022-08-09T17:50:24.873Z,101119.41
2022-08-09T18:00:44.213Z,101115.38
2022-08-09T18:11:01.667Z,101131.59
2022-08-09T18:21:11.611Z,101161.00
2022-08-09T18:31:32.328Z,101167.50
2022-08-09T18:41:52.857Z,101179.19
2022-08-09T18:51:58.108Z,101191.25
2022-08-09T19:02:00.693Z,101207.94
2022-08-09T19:12:07.748Z,101201.91
2022-08-09T19:22:15.240Z,101215.50
2022-08-09T19:32:21.835Z,101212.13
2022-08-09T19:42:29.347Z,101213.31
2022-08-09T19:52:32.701Z,101205.28
2022-08-09T20:04:09.785Z,101205.38
2022-08-09T20:13:02.666Z,101195.38
2022-08-09T20:23:06.859Z,101194.28
2022-08-09T20:33:10.723Z,101187.03
2022-08-09T20:43:24.352Z,101189.72
2022-08-09T20:53:37.626Z,101190.13
2022-08-09T21:04:35.611Z,101189.38
2022-08-09T21:14:03.019Z,101182.44
2022-08-09T21:24:05.798Z,101190.13
2022-08-09T21:34:09.105Z,101193.19
2022-08-09T21:44:11.641Z,101192.06
2022-08-09T21:54:18.007Z,101187.03
2022-08-09T22:04:21.404Z,101190.09
2022-08-09T22:14:43.819Z,101179.38
2022-08-09T22:24:53.678Z,101178.56
2022-08-09T22:36:03.356Z,101165.47
2022-08-09T22:48:10.059Z,101165.50
2022-08-09T22:56:29.851Z,101152.84
2022-08-09T23:06:34.986Z,101153.22
2022-08-09T23:16:38.692Z,101150.53
2022-08-09T23:26:41.134Z,101142.13
2022-08-09T23:36:43.412Z,101143.66
2022-08-09T23:46:46.261Z,101145.56
2022-08-09T23:56:58.250Z,101147.84
